createdAt,value
2023-02-19T00:00:47.977Z,990.58
2023-02-19T00:01:47.963Z,990.55
2023-02-19T00:02:47.983Z,990.56
2023-02-19T00:03:48.055Z,990.61
2023-02-19T00:04:47.974Z,990.53
2023-02-19T00:05:47.925Z,990.42
2023-02-19T00:06:47.931Z,990.49
2023-02-19T00:07:47.920Z,990.48
2023-02-19T00:08:47.905Z,990.49
2023-02-19T00:09:47.912Z,990.53
2023-02-19T00:10:47.882Z,990.46
2023-02-19T00:11:48.038Z,990.49
2023-02-19T00:12:47.860Z,990.48
2023-02-19T00:13:47.844Z,990.41
2023-02-19T00:14:47.870Z,990.41
2023-02-19T00:15:47.889Z,990.29
2023-02-19T00:16:47.816Z,990.35
2023-02-19T00:17:47.801Z,990.26
2023-02-19T00:18:47.803Z,990.30
2023-02-19T00:19:47.802Z,990.31
2023-02-19T00:20:47.774Z,990.22
2023-02-19T00:21:47.808Z,990.11
2023-02-19T00:22:47.762Z,990.12
2023-02-19T00:23:47.745Z,990.09
2023-02-19T00:24:49.249Z,990.09
2023-02-19T00:25:48.724Z,990.08
2023-02-19T00:26:48.743Z,989.96
2023-02-19T00:27:47.712Z,989.96
2023-02-19T00:28:47.713Z,990.02
2023-02-19T00:29:47.700Z,989.96
2023-02-19T00:30:47.706Z,989.97
2023-02-19T00:31:47.826Z,989.97
2023-02-19T00:32:47.709Z,989.97
2023-02-19T00:33:47.652Z,990.02
2023-02-19T00:34:47.657Z,989.99
2023-02-19T00:35:47.662Z,989.95
2023-02-19T00:36:47.636Z,989.98
2023-02-19T00:37:47.620Z,989.99
2023-02-19T00:38:47.630Z,990.06
2023-02-19T00:39:47.598Z,990.11
2023-02-19T00:40:47.597Z,990.21
2023-02-19T00:41:47.593Z,990.35
2023-02-19T00:42:47.579Z,990.35
2023-02-19T00:43:47.592Z,990.34
2023-02-19T00:44:47.556Z,990.27
2023-02-19T00:45:47.553Z,990.19
2023-02-19T00:46:47.555Z,990.11
2023-02-19T00:47:47.535Z,990.06
2023-02-19T00:48:47.515Z,989.93
2023-02-19T00:49:47.538Z,989.87
2023-02-19T00:50:47.491Z,989.84
2023-02-19T00:51:47.485Z,989.89
2023-02-19T00:52:47.499Z,989.81
2023-02-19T00:53:47.465Z,989.78
2023-02-19T00:54:47.459Z,989.70
2023-02-19T00:55:47.460Z,989.88
2023-02-19T00:56:47.433Z,989.86
2023-02-19T00:57:47.426Z,989.86
2023-02-19T00:58:47.430Z,989.85
2023-02-19T00:59:47.401Z,989.86
2023-02-19T01:00:47.418Z,989.79
2023-02-19T01:01:47.445Z,989.74
2023-02-19T01:02:47.376Z,989.74
2023-02-19T01:03:47.361Z,989.80
2023-02-19T01:04:48.393Z,989.62
2023-02-19T01:05:47.359Z,989.73
2023-02-19T01:06:47.356Z,989.75
2023-02-19T01:07:47.320Z,989.73
2023-02-19T01:08:47.308Z,989.70
2023-02-19T01:09:47.297Z,989.70
2023-02-19T01:10:48.290Z,989.76
2023-02-19T01:11:47.308Z,989.72
2023-02-19T01:12:47.277Z,989.71
2023-02-19T01:13:47.266Z,989.73
2023-02-19T01:14:47.271Z,989.80
2023-02-19T01:15:47.283Z,989.74
2023-02-19T01:16:47.258Z,989.76
2023-02-19T01:17:47.219Z,989.74
2023-02-19T01:18:47.198Z,989.66
2023-02-19T01:19:47.207Z,989.71
2023-02-19T01:20:47.193Z,989.61
2023-02-19T01:21:47.199Z,989.53
2023-02-19T01:22:47.194Z,989.58
2023-02-19T01:23:47.187Z,989.62
2023-02-19T01:24:47.151Z,989.62
2023-02-19T01:25:47.153Z,989.64
2023-02-19T01:26:47.144Z,989.65
2023-02-19T01:27:47.149Z,989.57
2023-02-19T01:28:47.104Z,989.51
2023-02-19T01:29:47.111Z,989.52
2023-02-19T01:30:47.093Z,989.53
2023-02-19T01:31:47.181Z,989.65
2023-02-19T01:32:47.076Z,989.75
2023-02-19T01:33:47.085Z,989.63
2023-02-19T01:34:47.057Z,989.67
2023-02-19T01:35:47.052Z,989.53
2023-02-19T01:36:47.036Z,989.54
2023-02-19T01:37:47.031Z,989.49
2023-02-19T01:38:47.037Z,989.49
2023-02-19T01:39:47.045Z,989.50
2023-02-19T01:40:47.013Z,989.53
2023-02-19T01:41:47.009Z,989.60
2023-02-19T01:42:46.986Z,989.51
2023-02-19T01:43:47.006Z,989.53
2023-02-19T01:44:46.989Z,989.51
2023-02-19T01:45:46.955Z,989.49
2023-02-19T01:46:46.972Z,989.43
2023-02-19T01:47:46.928Z,989.48
2023-02-19T01:48:46.934Z,989.37
2023-02-19T01:49:46.906Z,989.41
2023-02-19T01:50:46.921Z,989.47
2023-02-19T01:51:46.894Z,989.46
2023-02-19T01:52:46.890Z,989.43
2023-02-19T01:53:46.886Z,989.35
2023-02-19T01:54:46.874Z,989.39
2023-02-19T01:55:46.893Z,989.33
2023-02-19T01:56:46.846Z,989.33
2023-02-19T01:57:46.834Z,989.39
2023-02-19T01:58:46.810Z,989.39
2023-02-19T01:59:47.818Z,989.28
2023-02-19T02:00:46.836Z,989.25
2023-02-19T02:01:46.847Z,989.24
2023-02-19T02:02:46.781Z,989.18
2023-02-19T02:03:46.773Z,989.22
2023-02-19T02:04:46.767Z,989.29
2023-02-19T02:05:46.751Z,989.30
2023-02-19T02:06:46.761Z,989.21
2023-02-19T02:07:46.739Z,989.24
2023-02-19T02:08:46.767Z,989.15
2023-02-19T02:09:46.715Z,989.17
2023-02-19T02:10:46.716Z,989.12
2023-02-19T02:11:46.710Z,989.01
2023-02-19T02:12:46.695Z,989.09
2023-02-19T02:13:46.704Z,989.17
2023-02-19T02:14:46.679Z,989.11
2023-02-19T02:15:46.654Z,989.06
2023-02-19T02:16:46.655Z,989.15
2023-02-19T02:17:46.648Z,989.07
2023-02-19T02:18:46.640Z,989.04
2023-02-19T02:19:46.648Z,988.94
2023-02-19T02:20:46.642Z,988.95
2023-02-19T02:21:46.615Z,989.01
2023-02-19T02:22:46.593Z,989.00
2023-02-19T02:23:46.587Z,988.99
2023-02-19T02:24:46.564Z,989.08
2023-02-19T02:25:46.582Z,989.04
2023-02-19T02:26:46.573Z,989.08
2023-02-19T02:27:46.540Z,989.04
2023-02-19T02:28:46.531Z,989.16
2023-02-19T02:29:46.532Z,989.16
2023-02-19T02:30:46.538Z,989.12
2023-02-19T02:31:46.602Z,989.09
2023-02-19T02:32:46.497Z,989.14
2023-02-19T02:33:46.520Z,989.08
2023-02-19T02:34:46.482Z,989.05
2023-02-19T02:35:46.480Z,988.97
2023-02-19T02:36:46.516Z,988.98
2023-02-19T02:37:46.460Z,988.88
2023-02-19T02:38:46.445Z,988.82
2023-02-19T02:39:46.433Z,988.80
2023-02-19T02:40:46.428Z,988.72
2023-02-19T02:41:46.445Z,988.81
2023-02-19T02:42:46.393Z,988.75
2023-02-19T02:43:46.397Z,988.74
2023-02-19T02:44:46.389Z,988.72
2023-02-19T02:45:46.402Z,988.79
2023-02-19T02:46:46.374Z,988.81
2023-02-19T02:47:46.394Z,988.84
2023-02-19T02:48:46.346Z,988.85
2023-02-19T02:49:46.340Z,988.69
2023-02-19T02:50:46.340Z,988.73
2023-02-19T02:51:46.324Z,988.75
2023-02-19T02:52:46.330Z,988.71
2023-02-19T02:53:46.298Z,988.76
2023-02-19T02:54:46.282Z,988.81
2023-02-19T02:55:46.281Z,988.83
2023-02-19T02:56:46.275Z,988.67
2023-02-19T02:57:46.262Z,988.73
2023-02-19T02:58:46.268Z,988.71
2023-02-19T02:59:46.271Z,988.72
2023-02-19T03:00:46.272Z,988.75
2023-02-19T03:01:46.222Z,988.70
2023-02-19T03:02:46.208Z,988.74
2023-02-19T03:03:46.208Z,988.73
2023-02-19T03:04:46.207Z,988.75
2023-02-19T03:05:46.177Z,988.70
2023-02-19T03:06:46.186Z,988.68
2023-02-19T03:07:46.159Z,988.69
2023-02-19T03:08:46.159Z,988.63
2023-02-19T03:09:47.661Z,988.72
2023-02-19T03:10:46.129Z,988.66
2023-02-19T03:11:46.130Z,988.72
2023-02-19T03:12:46.103Z,988.63
2023-02-19T03:13:46.104Z,988.68
2023-02-19T03:14:46.125Z,988.69
2023-02-19T03:15:46.097Z,988.76
2023-02-19T03:16:46.190Z,988.70
2023-02-19T03:17:46.070Z,988.73
2023-02-19T03:18:46.065Z,988.74
2023-02-19T03:19:46.040Z,988.71
2023-02-19T03:20:46.042Z,988.77
2023-02-19T03:21:46.049Z,988.78
2023-02-19T03:22:46.029Z,988.77
2023-02-19T03:23:46.000Z,988.80
2023-02-19T03:24:45.990Z,988.64
2023-02-19T03:25:45.985Z,988.65
2023-02-19T03:26:45.970Z,988.71
2023-02-19T03:27:45.970Z,988.63
2023-02-19T03:28:45.957Z,988.70
2023-02-19T03:29:45.978Z,988.71
2023-02-19T03:30:45.943Z,988.68
2023-02-19T03:31:46.134Z,988.69
2023-02-19T03:32:45.917Z,988.68
2023-02-19T03:33:45.898Z,988.66
2023-02-19T03:34:45.926Z,988.67
2023-02-19T03:35:45.879Z,988.67
2023-02-19T03:36:45.876Z,988.75
2023-02-19T03:37:45.852Z,988.75
2023-02-19T03:38:45.850Z,988.73
2023-02-19T03:39:45.860Z,988.71
2023-02-19T03:40:45.832Z,988.69
2023-02-19T03:41:45.846Z,988.75
2023-02-19T03:42:45.820Z,988.72
2023-02-19T03:43:45.804Z,988.69
2023-02-19T03:44:45.792Z,988.70
2023-02-19T03:45:45.825Z,988.67
2023-02-19T03:47:11.697Z,988.62
2023-02-19T03:47:45.764Z,988.66
2023-02-19T03:48:45.761Z,988.65
2023-02-19T03:49:47.911Z,988.61
2023-02-19T03:50:45.757Z,988.64
2023-02-19T03:51:45.743Z,988.55
2023-02-19T03:52:45.728Z,988.58
2023-02-19T03:53:45.717Z,988.57
2023-02-19T03:54:45.698Z,988.57
2023-02-19T03:55:45.687Z,988.55
2023-02-19T03:56:45.705Z,988.62
2023-02-19T03:57:45.676Z,988.63
2023-02-19T03:58:45.688Z,988.68
2023-02-19T03:59:45.672Z,988.65
2023-02-19T04:00:45.653Z,988.69
2023-02-19T04:01:45.660Z,988.66
2023-02-19T04:02:45.646Z,988.73
2023-02-19T04:03:45.615Z,988.73
2023-02-19T04:04:45.708Z,988.71
2023-02-19T04:05:45.595Z,988.74
2023-02-19T04:06:45.598Z,988.69
2023-02-19T04:07:46.597Z,988.62
2023-02-19T04:08:45.609Z,988.70
2023-02-19T04:09:45.575Z,988.69
2023-02-19T04:10:45.574Z,988.62
2023-02-19T04:11:45.560Z,988.63
2023-02-19T04:12:45.530Z,988.71
2023-02-19T04:13:45.522Z,988.79
2023-02-19T04:14:45.551Z,988.77
2023-02-19T04:15:45.533Z,988.68
2023-02-19T04:16:45.610Z,988.70
2023-02-19T04:17:45.504Z,988.64
2023-02-19T04:18:45.472Z,988.65
2023-02-19T04:19:45.483Z,988.58
2023-02-19T04:20:45.472Z,988.64
2023-02-19T04:21:45.441Z,988.66
2023-02-19T04:22:45.480Z,988.66
2023-02-19T04:23:45.425Z,988.67
2023-02-19T04:24:45.449Z,988.64
2023-02-19T04:25:45.429Z,988.75
2023-02-19T04:26:46.414Z,988.62
2023-02-19T04:27:45.419Z,988.65
2023-02-19T04:28:45.410Z,988.64
2023-02-19T04:29:45.385Z,988.64
2023-02-19T04:30:45.392Z,988.61
2023-02-19T04:31:45.390Z,988.65
2023-02-19T04:32:45.428Z,988.72
2023-02-19T04:33:45.348Z,988.65
2023-02-19T04:34:45.357Z,988.66
2023-02-19T04:35:45.310Z,988.72
2023-02-19T04:36:45.304Z,988.79
2023-02-19T04:37:45.309Z,988.71
2023-02-19T04:38:45.294Z,988.67
2023-02-19T04:39:45.270Z,988.77
2023-02-19T04:40:45.279Z,988.75
2023-02-19T04:41:45.241Z,988.75
2023-02-19T04:42:45.235Z,988.73
2023-02-19T04:43:45.264Z,988.79
2023-02-19T04:44:45.245Z,988.72
2023-02-19T04:45:46.217Z,988.73
2023-02-19T04:46:45.212Z,988.77
2023-02-19T04:47:45.220Z,988.73
2023-02-19T04:48:45.180Z,988.74
2023-02-19T04:49:45.177Z,988.76
2023-02-19T04:50:45.173Z,988.83
2023-02-19T04:51:45.161Z,988.83
2023-02-19T04:52:45.171Z,988.86
2023-02-19T04:53:45.153Z,988.93
2023-02-19T04:54:45.131Z,988.92
2023-02-19T04:55:45.115Z,989.03
2023-02-19T04:56:45.097Z,988.99
2023-02-19T04:57:45.132Z,988.89
2023-02-19T04:58:45.087Z,988.98
2023-02-19T04:59:45.076Z,989.04
2023-02-19T05:00:45.092Z,989.00
2023-02-19T05:01:45.089Z,989.03
2023-02-19T05:02:45.067Z,988.99
2023-02-19T05:03:45.040Z,989.02
2023-02-19T05:04:45.020Z,989.02
2023-02-19T05:05:45.025Z,989.08
2023-02-19T05:06:45.014Z,989.03
2023-02-19T05:07:44.980Z,989.14
2023-02-19T05:08:44.973Z,989.06
2023-02-19T05:09:44.961Z,989.16
2023-02-19T05:10:44.966Z,989.13
2023-02-19T05:11:44.956Z,989.21
2023-02-19T05:12:44.936Z,989.13
2023-02-19T05:13:44.980Z,989.20
2023-02-19T05:14:44.922Z,989.16
2023-02-19T05:15:44.948Z,989.25
2023-02-19T05:16:44.926Z,989.14
2023-02-19T05:17:44.933Z,989.24
2023-02-19T05:18:44.893Z,989.15
2023-02-19T05:19:44.896Z,989.20
2023-02-19T05:20:44.860Z,989.20
2023-02-19T05:21:44.841Z,989.28
2023-02-19T05:22:44.854Z,989.30
2023-02-19T05:23:44.878Z,989.33
2023-02-19T05:24:44.848Z,989.30
2023-02-19T05:25:44.837Z,989.25
2023-02-19T05:26:45.561Z,989.31
2023-02-19T05:27:45.820Z,989.38
2023-02-19T05:28:44.831Z,989.42
2023-02-19T05:29:44.783Z,989.35
2023-02-19T05:30:44.801Z,989.35
2023-02-19T05:31:44.781Z,989.44
2023-02-19T05:32:45.755Z,989.44
2023-02-19T05:33:44.776Z,989.39
2023-02-19T05:34:44.741Z,989.48
2023-02-19T05:35:44.706Z,989.39
2023-02-19T05:36:44.721Z,989.46
2023-02-19T05:37:44.692Z,989.46
2023-02-19T05:38:44.713Z,989.41
2023-02-19T05:39:44.697Z,989.42
2023-02-19T05:40:44.711Z,989.54
2023-02-19T05:41:44.652Z,989.51
2023-02-19T05:42:44.661Z,989.53
2023-02-19T05:43:44.658Z,989.60
2023-02-19T05:44:44.679Z,989.60
2023-02-19T05:45:44.621Z,989.60
2023-02-19T05:46:44.640Z,989.59
2023-02-19T05:47:44.595Z,989.55
2023-02-19T05:48:44.609Z,989.54
2023-02-19T05:49:44.616Z,989.57
2023-02-19T05:50:44.572Z,989.56
2023-02-19T05:51:44.554Z,989.62
2023-02-19T05:52:44.552Z,989.59
2023-02-19T05:53:44.545Z,989.59
2023-02-19T05:54:44.524Z,989.62
2023-02-19T05:55:44.560Z,989.61
2023-02-19T05:56:44.547Z,989.66
2023-02-19T05:57:44.508Z,989.68
2023-02-19T05:58:44.491Z,989.65
2023-02-19T05:59:44.536Z,989.66
2023-02-19T06:00:44.482Z,989.67
2023-02-19T06:01:44.491Z,989.64
2023-02-19T06:02:44.502Z,989.68
2023-02-19T06:03:44.516Z,989.74
2023-02-19T06:04:44.436Z,989.73
2023-02-19T06:05:44.436Z,989.76
2023-02-19T06:06:44.461Z,989.78
2023-02-19T06:07:44.415Z,989.76
2023-02-19T06:08:44.400Z,989.81
2023-02-19T06:09:44.392Z,989.79
2023-02-19T06:10:44.378Z,989.81
2023-02-19T06:11:44.401Z,989.81
2023-02-19T06:12:44.379Z,989.86
2023-02-19T06:13:44.363Z,989.86
2023-02-19T06:14:44.370Z,989.81
2023-02-19T06:15:44.352Z,989.91
2023-02-19T06:16:44.340Z,989.87
2023-02-19T06:17:44.334Z,989.87
2023-02-19T06:18:44.299Z,989.92
2023-02-19T06:19:44.304Z,989.93
2023-02-19T06:20:44.301Z,989.93
2023-02-19T06:21:45.298Z,989.93
2023-02-19T06:22:44.257Z,989.92
2023-02-19T06:23:44.334Z,989.97
2023-02-19T06:24:44.267Z,990.07
2023-02-19T06:25:44.264Z,990.06
2023-02-19T06:26:44.234Z,990.10
2023-02-19T06:27:44.222Z,990.11
2023-02-19T06:28:44.225Z,990.10
2023-02-19T06:29:44.218Z,990.09
2023-02-19T06:30:44.240Z,990.14
2023-02-19T06:31:44.300Z,990.16
2023-02-19T06:32:44.180Z,990.20
2023-02-19T06:33:44.177Z,990.14
2023-02-19T06:34:44.181Z,990.17
2023-02-19T06:35:44.144Z,990.16
2023-02-19T06:36:44.201Z,990.20
2023-02-19T06:37:44.144Z,990.22
2023-02-19T06:38:44.156Z,990.26
2023-02-19T06:39:44.130Z,990.32
2023-02-19T06:40:44.092Z,990.31
2023-02-19T06:41:44.139Z,990.39
2023-02-19T06:42:44.090Z,990.40
2023-02-19T06:43:44.069Z,990.46
2023-02-19T06:44:44.061Z,990.49
2023-02-19T06:45:44.049Z,990.47
2023-02-19T06:46:44.082Z,990.40
2023-02-19T06:47:44.021Z,990.48
2023-02-19T06:48:44.026Z,990.46
2023-02-19T06:49:44.025Z,990.47
2023-02-19T06:50:44.001Z,990.50
2023-02-19T06:51:44.017Z,990.55
2023-02-19T06:52:43.989Z,990.55
2023-02-19T06:53:44.009Z,990.54
2023-02-19T06:54:43.970Z,990.58
2023-02-19T06:55:43.969Z,990.53
2023-02-19T06:56:46.131Z,990.52
2023-02-19T06:57:43.967Z,990.56
2023-02-19T06:58:43.932Z,990.53
2023-02-19T06:59:43.929Z,990.64
2023-02-19T07:00:43.948Z,990.68
2023-02-19T07:01:43.945Z,990.66
2023-02-19T07:02:43.908Z,990.69
2023-02-19T07:03:43.992Z,990.74
2023-02-19T07:04:43.873Z,990.79
2023-02-19T07:05:43.853Z,990.75
2023-02-19T07:06:43.858Z,990.76
2023-02-19T07:07:43.843Z,990.75
2023-02-19T07:08:43.816Z,990.72
2023-02-19T07:09:43.815Z,990.70
2023-02-19T07:10:43.794Z,990.72
2023-02-19T07:11:43.835Z,990.76
2023-02-19T07:12:43.789Z,990.73
2023-02-19T07:13:43.775Z,990.77
2023-02-19T07:14:43.778Z,990.74
2023-02-19T07:15:43.733Z,990.77
2023-02-19T07:16:43.776Z,990.80
2023-02-19T07:17:43.721Z,990.86
2023-02-19T07:18:43.713Z,990.84
2023-02-19T07:19:43.728Z,990.85
2023-02-19T07:20:43.701Z,990.89
2023-02-19T07:21:43.699Z,990.87
2023-02-19T07:22:43.686Z,990.93
2023-02-19T07:23:43.667Z,990.91
2023-02-19T07:24:43.674Z,990.91
2023-02-19T07:25:43.649Z,990.91
2023-02-19T07:26:43.649Z,990.93
2023-02-19T07:27:43.647Z,990.96
2023-02-19T07:28:43.631Z,990.96
2023-02-19T07:29:43.641Z,990.92
2023-02-19T07:30:43.668Z,990.95
2023-02-19T07:31:43.623Z,990.96
2023-02-19T07:32:43.588Z,990.97
2023-02-19T07:33:43.568Z,990.92
2023-02-19T07:34:43.572Z,990.99
2023-02-19T07:35:43.552Z,991.02
2023-02-19T07:36:43.533Z,991.02
2023-02-19T07:37:43.556Z,991.15
2023-02-19T07:38:43.549Z,991.16
2023-02-19T07:39:43.526Z,991.24
2023-02-19T07:40:43.504Z,991.27
2023-02-19T07:41:43.495Z,991.28
2023-02-19T07:42:43.484Z,991.34
2023-02-19T07:43:43.492Z,991.32
2023-02-19T07:44:43.475Z,991.36
2023-02-19T07:45:43.508Z,991.37
2023-02-19T07:46:43.482Z,991.33
2023-02-19T07:47:43.478Z,991.38
2023-02-19T07:48:43.436Z,991.42
2023-02-19T07:49:43.427Z,991.37
2023-02-19T07:50:43.435Z,991.43
2023-02-19T07:51:43.397Z,991.39
2023-02-19T07:52:43.398Z,991.40
2023-02-19T07:53:43.420Z,991.45
2023-02-19T07:54:43.350Z,991.41
2023-02-19T07:55:43.361Z,991.42
2023-02-19T07:56:43.370Z,991.46
2023-02-19T07:57:43.330Z,991.43
2023-02-19T07:58:43.343Z,991.53
2023-02-19T07:59:43.316Z,991.50
2023-02-19T08:00:43.312Z,991.51
2023-02-19T08:01:43.336Z,991.51
2023-02-19T08:02:43.298Z,991.49
2023-02-19T08:03:43.319Z,991.49
2023-02-19T08:04:43.274Z,991.52
2023-02-19T08:05:43.268Z,991.59
2023-02-19T08:06:43.258Z,991.56
2023-02-19T08:07:43.241Z,991.63
2023-02-19T08:08:43.210Z,991.63
2023-02-19T08:09:43.254Z,991.65
2023-02-19T08:10:43.210Z,991.65
2023-02-19T08:11:43.199Z,991.67
2023-02-19T08:12:43.209Z,991.69
2023-02-19T08:13:43.199Z,991.76
2023-02-19T08:14:43.189Z,991.80
2023-02-19T08:15:43.145Z,991.80
2023-02-19T08:16:43.596Z,991.80
2023-02-19T08:17:44.145Z,991.76
2023-02-19T08:18:43.153Z,991.85
2023-02-19T08:19:43.112Z,991.84
2023-02-19T08:20:43.134Z,991.87
2023-02-19T08:21:43.099Z,991.89
2023-02-19T08:22:43.132Z,991.90
2023-02-19T08:23:43.073Z,991.96
2023-02-19T08:24:43.059Z,991.98
2023-02-19T08:25:43.053Z,991.99
2023-02-19T08:26:43.071Z,992.02
2023-02-19T08:27:43.067Z,992.02
2023-02-19T08:28:43.052Z,992.10
2023-02-19T08:29:43.030Z,992.08
2023-02-19T08:30:43.156Z,992.16
2023-02-19T08:31:43.182Z,992.12
2023-02-19T08:32:42.995Z,992.14
2023-02-19T08:33:43.006Z,992.16
2023-02-19T08:34:42.972Z,992.14
2023-02-19T08:35:42.975Z,992.23
2023-02-19T08:36:42.971Z,992.21
2023-02-19T08:37:42.940Z,992.31
2023-02-19T08:38:42.961Z,992.34
2023-02-19T08:39:42.938Z,992.29
2023-02-19T08:40:42.905Z,992.29
2023-02-19T08:41:42.913Z,992.23
2023-02-19T08:42:42.881Z,992.32
2023-02-19T08:43:42.890Z,992.39
2023-02-19T08:44:42.908Z,992.44
2023-02-19T08:45:42.972Z,992.43
2023-02-19T08:46:42.858Z,992.47
2023-02-19T08:47:42.859Z,992.43
2023-02-19T08:48:42.842Z,992.42
2023-02-19T08:49:42.845Z,992.42
2023-02-19T08:50:42.829Z,992.45
2023-02-19T08:51:42.819Z,992.48
2023-02-19T08:52:42.793Z,992.52
2023-02-19T08:53:42.779Z,992.54
2023-02-19T08:54:42.783Z,992.49
2023-02-19T08:55:42.761Z,992.46
2023-02-19T08:56:42.793Z,992.45
2023-02-19T08:57:42.741Z,992.48
2023-02-19T08:58:42.750Z,992.52
2023-02-19T08:59:42.731Z,992.52
2023-02-19T09:00:42.723Z,992.48
2023-02-19T09:01:42.770Z,992.51
2023-02-19T09:02:42.720Z,992.55
2023-02-19T09:03:42.710Z,992.55
2023-02-19T09:04:42.678Z,992.61
2023-02-19T09:05:42.659Z,992.57
2023-02-19T09:06:42.679Z,992.62
2023-02-19T09:07:42.654Z,992.64
2023-02-19T09:08:42.645Z,992.60
2023-02-19T09:09:42.631Z,992.58
2023-02-19T09:10:42.621Z,992.58
2023-02-19T09:11:42.621Z,992.65
2023-02-19T09:12:42.621Z,992.60
2023-02-19T09:13:42.657Z,992.65
2023-02-19T09:14:42.596Z,992.67
2023-02-19T09:15:42.577Z,992.71
2023-02-19T09:16:42.570Z,992.71
2023-02-19T09:17:42.577Z,992.74
2023-02-19T09:18:42.557Z,992.73
2023-02-19T09:19:42.551Z,992.77
2023-02-19T09:20:42.530Z,992.75
2023-02-19T09:21:42.512Z,992.76
2023-02-19T09:22:42.497Z,992.74
2023-02-19T09:23:43.480Z,992.74
2023-02-19T09:24:42.499Z,992.72
2023-02-19T09:25:42.492Z,992.73
2023-02-19T09:26:42.458Z,992.67
2023-02-19T09:27:42.448Z,992.61
2023-02-19T09:28:42.455Z,992.64
2023-02-19T09:29:42.448Z,992.77
2023-02-19T09:30:42.514Z,992.87
2023-02-19T09:31:42.504Z,992.80
2023-02-19T09:32:42.390Z,992.88
2023-02-19T09:33:42.420Z,992.87
2023-02-19T09:34:42.377Z,992.85
2023-02-19T09:35:42.378Z,992.86
2023-02-19T09:36:42.353Z,992.84
2023-02-19T09:37:42.354Z,992.82
2023-02-19T09:38:42.344Z,992.81
2023-02-19T09:39:42.340Z,992.84
2023-02-19T09:40:42.349Z,992.86
2023-02-19T09:41:42.298Z,992.83
2023-02-19T09:42:42.309Z,992.83
2023-02-19T09:43:42.302Z,992.81
2023-02-19T09:44:42.303Z,992.79
2023-02-19T09:45:42.265Z,992.89
2023-02-19T09:46:42.267Z,992.84
2023-02-19T09:48:14.156Z,992.87
2023-02-19T09:48:42.246Z,992.93
2023-02-19T09:49:42.229Z,992.99
2023-02-19T09:50:42.211Z,992.92
2023-02-19T09:51:42.204Z,992.98
2023-02-19T09:52:42.219Z,993.02
2023-02-19T09:53:42.181Z,992.99
2023-02-19T09:54:42.171Z,993.04
2023-02-19T09:55:42.161Z,993.09
2023-02-19T09:56:42.163Z,993.10
2023-02-19T09:57:42.164Z,993.05
2023-02-19T09:58:42.141Z,993.03
2023-02-19T09:59:42.122Z,993.09
2023-02-19T10:00:42.112Z,993.12
2023-02-19T10:01:42.235Z,993.10
2023-02-19T10:02:42.094Z,993.15
2023-02-19T10:03:42.107Z,993.13
2023-02-19T10:04:42.073Z,993.09
2023-02-19T10:05:42.062Z,993.07
2023-02-19T10:06:42.049Z,993.05
2023-02-19T10:07:42.045Z,993.04
2023-02-19T10:08:42.046Z,993.09
2023-02-19T10:09:42.041Z,993.09
2023-02-19T10:10:42.012Z,993.07
2023-02-19T10:11:42.007Z,993.19
2023-02-19T10:12:41.997Z,993.16
2023-02-19T10:13:41.986Z,993.18
2023-02-19T10:14:42.016Z,993.21
2023-02-19T10:15:41.984Z,993.24
2023-02-19T10:16:41.964Z,993.27
2023-02-19T10:17:41.955Z,993.31
2023-02-19T10:18:41.939Z,993.31
2023-02-19T10:19:41.958Z,993.30
2023-02-19T10:20:41.924Z,993.34
2023-02-19T10:21:41.934Z,993.33
2023-02-19T10:22:41.900Z,993.37
2023-02-19T10:23:41.895Z,993.46
2023-02-19T10:24:41.871Z,993.45
2023-02-19T10:25:41.887Z,993.45
2023-02-19T10:26:41.869Z,993.44
2023-02-19T10:27:41.854Z,993.46
2023-02-19T10:28:41.849Z,993.44
2023-02-19T10:29:41.868Z,993.43
2023-02-19T10:30:41.847Z,993.46
2023-02-19T10:31:41.965Z,993.47
2023-02-19T10:32:41.818Z,993.49
2023-02-19T10:33:41.816Z,993.57
2023-02-19T10:34:41.784Z,993.60
2023-02-19T10:35:41.802Z,993.68
2023-02-19T10:36:41.782Z,993.64
2023-02-19T10:37:41.768Z,993.66
2023-02-19T10:38:41.768Z,993.69
2023-02-19T10:39:41.740Z,993.77
2023-02-19T10:40:41.731Z,993.70
2023-02-19T10:41:44.152Z,993.78
2023-02-19T10:42:42.709Z,993.80
2023-02-19T10:43:41.720Z,993.82
2023-02-19T10:44:41.690Z,993.80
2023-02-19T10:45:41.676Z,993.79
2023-02-19T10:46:41.741Z,993.85
2023-02-19T10:47:41.657Z,993.92
2023-02-19T10:48:41.669Z,993.91
2023-02-19T10:49:41.640Z,993.85
2023-02-19T10:50:41.632Z,993.92
2023-02-19T10:51:41.653Z,993.88
2023-02-19T10:52:41.625Z,993.89
2023-02-19T10:53:41.618Z,993.84
2023-02-19T10:54:41.600Z,993.84
2023-02-19T10:55:41.585Z,993.83
2023-02-19T10:56:41.565Z,993.89
2023-02-19T10:57:41.575Z,993.93
2023-02-19T10:58:41.554Z,993.94
2023-02-19T10:59:41.544Z,993.98
2023-02-19T11:00:41.538Z,994.07
2023-02-19T11:01:41.555Z,994.10
2023-02-19T11:02:41.529Z,994.10
2023-02-19T11:03:41.513Z,994.13
2023-02-19T11:04:41.493Z,994.08
2023-02-19T11:05:41.464Z,994.05
2023-02-19T11:06:42.473Z,994.14
2023-02-19T11:07:41.505Z,994.17
2023-02-19T11:08:41.470Z,994.17
2023-02-19T11:09:41.451Z,994.15
2023-02-19T11:10:41.443Z,994.05
2023-02-19T11:11:41.445Z,994.14
2023-02-19T11:12:41.411Z,994.09
2023-02-19T11:13:41.415Z,994.16
2023-02-19T11:14:41.414Z,994.13
2023-02-19T11:15:41.384Z,994.21
2023-02-19T11:16:41.381Z,994.21
2023-02-19T11:17:41.363Z,994.29
2023-02-19T11:18:41.377Z,994.29
2023-02-19T11:19:41.363Z,994.24
2023-02-19T11:20:41.349Z,994.12
2023-02-19T11:21:41.355Z,994.22
2023-02-19T11:22:41.330Z,994.22
2023-02-19T11:23:41.306Z,994.23
2023-02-19T11:24:41.333Z,994.26
2023-02-19T11:25:41.282Z,994.24
2023-02-19T11:26:41.302Z,994.21
2023-02-19T11:27:41.274Z,994.19
2023-02-19T11:28:41.258Z,994.17
2023-02-19T11:29:41.273Z,994.21
2023-02-19T11:30:41.409Z,994.10
2023-02-19T11:31:41.328Z,994.17
2023-02-19T11:32:41.215Z,994.15
2023-02-19T11:33:41.209Z,994.09
2023-02-19T11:34:41.203Z,994.16
2023-02-19T11:35:41.213Z,994.15
2023-02-19T11:36:41.173Z,994.16
2023-02-19T11:37:42.165Z,994.19
2023-02-19T11:38:41.157Z,994.11
2023-02-19T11:39:41.175Z,994.13
2023-02-19T11:40:42.155Z,994.10
2023-02-19T11:41:41.148Z,994.20
2023-02-19T11:42:41.123Z,994.26
2023-02-19T11:43:41.113Z,994.23
2023-02-19T11:44:41.111Z,994.19
2023-02-19T11:45:41.123Z,994.15
2023-02-19T11:46:41.099Z,994.24
2023-02-19T11:47:41.080Z,994.15
2023-02-19T11:48:41.067Z,994.14
2023-02-19T11:49:41.055Z,994.16
2023-02-19T11:50:41.058Z,994.15
2023-02-19T11:51:41.051Z,994.18
2023-02-19T11:52:41.068Z,994.19
2023-02-19T11:53:41.027Z,994.19
2023-02-19T11:54:41.008Z,994.15
2023-02-19T11:55:41.025Z,994.18
2023-02-19T11:56:40.992Z,994.22
2023-02-19T11:57:40.985Z,994.23
2023-02-19T11:58:40.966Z,994.21
2023-02-19T11:59:40.951Z,994.26
2023-02-19T12:00:40.950Z,994.26
2023-02-19T12:01:41.000Z,994.28
2023-02-19T12:02:40.938Z,994.33
2023-02-19T12:03:40.916Z,994.34
2023-02-19T12:04:40.934Z,994.40
2023-02-19T12:05:40.891Z,994.46
2023-02-19T12:06:40.883Z,994.48
2023-02-19T12:07:40.876Z,994.50
2023-02-19T12:08:40.863Z,994.55
2023-02-19T12:09:40.880Z,994.58
2023-02-19T12:10:40.861Z,994.59
2023-02-19T12:11:40.845Z,994.61
2023-02-19T12:12:40.831Z,994.53
2023-02-19T12:13:40.840Z,994.55
2023-02-19T12:14:40.831Z,994.60
2023-02-19T12:15:40.806Z,994.55
2023-02-19T12:16:40.817Z,994.56
2023-02-19T12:17:40.787Z,994.60
2023-02-19T12:18:40.779Z,994.65
2023-02-19T12:19:40.815Z,994.63
2023-02-19T12:20:40.757Z,994.65
2023-02-19T12:21:40.748Z,994.62
2023-02-19T12:22:40.730Z,994.60
2023-02-19T12:23:40.731Z,994.55
2023-02-19T12:24:40.717Z,994.57
2023-02-19T12:25:40.723Z,994.61
2023-02-19T12:26:40.703Z,994.64
2023-02-19T12:27:40.688Z,994.62
2023-02-19T12:28:40.676Z,994.63